Time;durP1;ratioP1;P1;durP2;ratioP2;P2;SDS_P1;SDS_P2;PMS_P1;PMS_P2;Temp;Humidity;BMP_temperature;BMP_pressure;BME280_temperature;BME280_humidity;BME280_pressure;Samples;Min_cycle;Max_cycle;Signal;HPM_P1;HPM_P2
2022/04/04 00:01:06;;;;;;;6.10;2.55;;;;;;;;;;4967642;28;20051;-65
2022/04/04 00:03:32;;;;;;;5.43;2.78;;;;;;;;;;4967908;28;20114;-65
2022/04/04 00:05:58;;;;;;;8.50;2.83;;;;;;;;;;4949620;28;20047;-64
2022/04/04 00:08:25;;;;;;;6.00;2.30;;;;;;;;;;4959646;28;20043;-65
2022/04/04 00:10:51;;;;;;;7.22;2.65;;;;;;;;;;4949708;28;20524;-65
2022/04/04 00:13:17;;;;;;;5.30;2.42;;;;;;;;;;4949563;28;20107;-65
2022/04/04 00:15:43;;;;;;;4.65;2.50;;;;;;;;;;4948893;28;20050;-65
2022/04/04 00:18:10;;;;;;;5.28;2.45;;;;;;;;;;4949632;28;20111;-65
2022/04/04 00:20:37;;;;;;;7.78;2.53;;;;;;;;;;4950914;28;20054;-65
2022/04/04 00:23:03;;;;;;;6.95;2.40;;;;;;;;;;4967218;28;20042;-65
2022/04/04 00:25:30;;;;;;;8.82;3.42;;;;;;;;;;4949867;28;20448;-65
2022/04/04 00:27:56;;;;;;;9.45;3.13;;;;;;;;;;4964279;28;20050;-65
2022/04/04 00:30:22;;;;;;;10.45;2.70;;;;;;;;;;4968048;28;20493;-64
2022/04/04 00:32:48;;;;;;;8.57;2.75;;;;;;;;;;4968366;28;20109;-65
2022/04/04 00:35:14;;;;;;;6.20;2.72;;;;;;;;;;4962898;28;20126;-65
2022/04/04 00:37:40;;;;;;;7.80;3.20;;;;;;;;;;4967808;28;20122;-65
2022/04/04 00:40:07;;;;;;;7.00;3.20;;;;;;;;;;4967748;28;20612;-65
2022/04/04 00:42:33;;;;;;;9.38;2.97;;;;;;;;;;4950422;28;20109;-65
2022/04/04 00:44:59;;;;;;;5.10;2.72;;;;;;;;;;4950166;28;20425;-64
2022/04/04 00:47:26;;;;;;;6.28;2.83;;;;;;;;;;4967587;28;20046;-65
2022/04/04 00:49:52;;;;;;;10.15;3.42;;;;;;;;;;4966967;28;20042;-64
2022/04/04 00:52:18;;;;;;;7.72;2.97;;;;;;;;;;4967261;28;20057;-65
2022/04/04 00:54:46;;;;;;;5.45;2.70;;;;;;;;;;4966959;28;20423;-65
2022/04/04 00:57:12;;;;;;;7.43;2.97;;;;;;;;;;4949974;28;20137;-65
2022/04/04 00:59:39;;;;;;;6.53;3.05;;;;;;;;;;4967547;28;20054;-65
2022/04/04 01:02:05;;;;;;;6.57;3.20;;;;;;;;;;4950217;28;20051;-65
2022/04/04 01:04:32;;;;;;;7.13;2.97;;;;;;;;;;4967342;28;20145;-64
2022/04/04 01:07:02;;;;;;;7.93;3.22;;;;;;;;;;4965678;28;20042;-65
2022/04/04 01:09:28;;;;;;;9.02;4.00;;;;;;;;;;4967163;28;20456;-65
2022/04/04 01:14:35;;;;;;;11.93;4.07;;;;;;;;;;4989673;23;20062;-65
2022/04/04 01:17:01;;;;;;;10.85;4.82;;;;;;;;;;4982521;28;20042;-64
2022/04/04 01:19:27;;;;;;;12.65;5.05;;;;;;;;;;4986313;28;20050;-64
2022/04/04 01:21:53;;;;;;;10.70;4.82;;;;;;;;;;4985340;28;20415;-65
2022/04/04 01:24:20;;;;;;;8.60;4.72;;;;;;;;;;4986895;28;20487;-65
2022/04/04 01:26:47;;;;;;;10.07;5.47;;;;;;;;;;4986197;28;20046;-65
2022/04/04 01:29:13;;;;;;;14.52;5.22;;;;;;;;;;4985990;28;20048;-64
2022/04/04 01:31:39;;;;;;;11.02;5.72;;;;;;;;;;4986711;28;20111;-65
2022/04/04 01:34:05;;;;;;;11.55;5.95;;;;;;;;;;4985826;28;20105;-65
2022/04/04 01:36:31;;;;;;;14.02;6.95;;;;;;;;;;4985551;28;20456;-65
2022/04/04 01:38:58;;;;;;;18.45;7.00;;;;;;;;;;4985594;28;20042;-65
2022/04/04 01:41:24;;;;;;;14.23;6.80;;;;;;;;;;4986216;28;20042;-64
2022/04/04 01:43:51;;;;;;;13.80;7.22;;;;;;;;;;4986440;28;20085;-65
2022/04/04 01:46:24;;;;;;;16.35;7.95;;;;;;;;;;4986270;28;20946;-64
2022/04/04 01:48:51;;;;;;;12.75;7.85;;;;;;;;;;4986616;28;20043;-65
2022/04/04 01:51:17;;;;;;;15.43;8.00;;;;;;;;;;4968463;28;20235;-65
2022/04/04 01:53:45;;;;;;;13.25;7.80;;;;;;;;;;4985911;28;20042;-65
2022/04/04 01:56:11;;;;;;;14.57;7.72;;;;;;;;;;4985276;28;20519;-65
2022/04/04 01:58:38;;;;;;;13.00;7.32;;;;;;;;;;4985976;28;20042;-65
2022/04/04 02:01:12;;;;;;;13.40;7.90;;;;;;;;;;4968158;28;20085;-65
2022/04/04 02:03:38;;;;;;;15.30;7.47;;;;;;;;;;4986003;28;20042;-65
2022/04/04 02:06:05;;;;;;;14.02;8.10;;;;;;;;;;4984964;28;20058;-65
2022/04/04 02:08:31;;;;;;;14.93;7.30;;;;;;;;;;4985968;28;20472;-65
2022/04/04 02:10:58;;;;;;;12.77;7.22;;;;;;;;;;4984959;28;20054;-65
2022/04/04 02:13:25;;;;;;;15.15;7.60;;;;;;;;;;4985597;28;20050;-65
2022/04/04 02:15:52;;;;;;;15.32;7.68;;;;;;;;;;4986098;28;20062;-65
2022/04/04 02:18:19;;;;;;;13.73;7.55;;;;;;;;;;4986042;28;20049;-65
2022/04/04 02:20:45;;;;;;;12.30;6.82;;;;;;;;;;4985152;28;20046;-65
2022/04/04 02:23:12;;;;;;;14.40;7.95;;;;;;;;;;4985692;28;20608;-65
2022/04/04 02:25:38;;;;;;;18.17;8.90;;;;;;;;;;4985733;28;20121;-65
2022/04/04 02:28:05;;;;;;;12.80;6.18;;;;;;;;;;4985061;28;20402;-66
2022/04/04 02:30:31;;;;;;;16.08;7.88;;;;;;;;;;4985677;28;20049;-66
2022/04/04 02:32:57;;;;;;;13.40;7.10;;;;;;;;;;4985309;28;20507;-66
2022/04/04 02:35:24;;;;;;;13.82;7.50;;;;;;;;;;4967469;28;20042;-66
2022/04/04 02:37:50;;;;;;;14.52;7.35;;;;;;;;;;4985899;28;20488;-65
2022/04/04 02:40:16;;;;;;;16.30;8.15;;;;;;;;;;4989210;28;20049;-65
2022/04/04 02:42:42;;;;;;;15.13;8.05;;;;;;;;;;4988908;28;20145;-65
2022/04/04 02:45:08;;;;;;;18.55;9.15;;;;;;;;;;4989114;28;20038;-65
2022/04/04 02:47:35;;;;;;;18.95;8.65;;;;;;;;;;4988644;28;20587;-66
2022/04/04 02:50:01;;;;;;;15.10;7.32;;;;;;;;;;4988341;28;20081;-66
2022/04/04 02:52:27;;;;;;;15.25;8.25;;;;;;;;;;4989444;28;20507;-66
2022/04/04 02:54:53;;;;;;;15.93;8.18;;;;;;;;;;4988351;28;20047;-66
2022/04/04 02:57:20;;;;;;;15.60;8.07;;;;;;;;;;4989241;28;20035;-66
2022/04/04 02:59:46;;;;;;;18.60;8.55;;;;;;;;;;4989192;28;20049;-66
2022/04/04 03:02:12;;;;;;;14.98;7.35;;;;;;;;;;4988407;28;20046;-66
2022/04/04 03:04:40;;;;;;;22.00;8.40;;;;;;;;;;4988626;28;20049;-65
2022/04/04 03:07:08;;;;;;;14.27;7.70;;;;;;;;;;4988591;28;20173;-66
2022/04/04 03:09:34;;;;;;;20.38;7.97;;;;;;;;;;4988928;28;20038;-66
2022/04/04 03:12:01;;;;;;;24.10;8.52;;;;;;;;;;4987963;28;20049;-65
2022/04/04 03:14:28;;;;;;;14.40;7.95;;;;;;;;;;4988404;28;20050;-66
2022/04/04 03:16:55;;;;;;;19.67;8.90;;;;;;;;;;4988121;28;20050;-66
2022/04/04 03:19:22;;;;;;;18.20;8.43;;;;;;;;;;4988265;28;20483;-66
2022/04/04 03:21:48;;;;;;;19.15;8.45;;;;;;;;;;4982267;28;20484;-66
2022/04/04 03:24:14;;;;;;;19.02;8.82;;;;;;;;;;4968879;28;20030;-66
2022/04/04 03:26:40;;;;;;;14.10;7.22;;;;;;;;;;4969714;28;20043;-66
2022/04/04 03:29:06;;;;;;;17.75;8.93;;;;;;;;;;4969599;28;20058;-66
2022/04/04 03:31:33;;;;;;;21.90;9.15;;;;;;;;;;4969688;28;20043;-66
2022/04/04 03:33:59;;;;;;;20.38;8.70;;;;;;;;;;4984906;28;20053;-65
2022/04/04 03:36:25;;;;;;;18.88;8.88;;;;;;;;;;4970033;28;20563;-66
2022/04/04 03:38:51;;;;;;;18.58;8.80;;;;;;;;;;4988455;28;20044;-66
2022/04/04 03:41:17;;;;;;;16.05;7.60;;;;;;;;;;4988359;28;20050;-66
2022/04/04 03:43:43;;;;;;;16.40;9.00;;;;;;;;;;4988066;28;20046;-66
2022/04/04 03:46:10;;;;;;;15.02;8.50;;;;;;;;;;4987761;28;20046;-66
2022/04/04 03:48:36;;;;;;;19.70;9.25;;;;;;;;;;4987935;28;20050;-66
2022/04/04 03:51:02;;;;;;;17.35;8.93;;;;;;;;;;4968799;28;20046;-66
2022/04/04 03:53:28;;;;;;;15.30;8.32;;;;;;;;;;4987756;28;20054;-66
2022/04/04 03:55:54;;;;;;;19.45;8.88;;;;;;;;;;4987573;28;20042;-66
2022/04/04 03:58:21;;;;;;;18.48;8.90;;;;;;;;;;4987864;28;20507;-66
2022/04/04 04:00:47;;;;;;;19.65;9.45;;;;;;;;;;4988279;28;20109;-66
2022/04/04 04:03:13;;;;;;;18.13;9.20;;;;;;;;;;4987314;28;20053;-65
2022/04/04 04:05:39;;;;;;;18.23;8.52;;;;;;;;;;4969734;28;20042;-66
2022/04/04 04:08:06;;;;;;;17.80;9.00;;;;;;;;;;4987343;28;20404;-66
2022/04/04 04:10:33;;;;;;;19.33;8.30;;;;;;;;;;4987866;28;20527;-65
2022/04/04 04:13:01;;;;;;;20.20;9.70;;;;;;;;;;4987053;28;20098;-66
2022/04/04 04:15:27;;;;;;;18.75;8.60;;;;;;;;;;4987049;28;20050;-66
2022/04/04 04:17:54;;;;;;;17.77;8.52;;;;;;;;;;4987203;28;20049;-66
2022/04/04 04:20:20;;;;;;;17.80;9.45;;;;;;;;;;4986973;28;20416;-67
2022/04/04 04:22:48;;;;;;;20.27;8.68;;;;;;;;;;4986956;28;20366;-65
2022/04/04 04:25:15;;;;;;;15.25;8.60;;;;;;;;;;4986994;28;20177;-65
2022/04/04 04:27:42;;;;;;;16.75;9.05;;;;;;;;;;4987409;28;20037;-65
2022/04/04 04:30:09;;;;;;;16.67;7.75;;;;;;;;;;4987255;28;20536;-65
2022/04/04 04:32:35;;;;;;;19.80;8.60;;;;;;;;;;4969482;28;20046;-64
2022/04/04 04:35:01;;;;;;;17.80;8.32;;;;;;;;;;4985859;28;20038;-65
2022/04/04 04:37:27;;;;;;;17.27;9.75;;;;;;;;;;4986977;28;20077;-64
2022/04/04 04:39:53;;;;;;;15.90;8.57;;;;;;;;;;4986676;28;20075;-64
2022/04/04 04:42:19;;;;;;;16.40;8.13;;;;;;;;;;4987479;28;20068;-64
2022/04/04 04:44:46;;;;;;;15.85;8.63;;;;;;;;;;4986934;28;20044;-65
2022/04/04 04:47:12;;;;;;;16.35;9.70;;;;;;;;;;4986948;28;20054;-65
2022/04/04 04:49:38;;;;;;;17.73;8.48;;;;;;;;;;4985686;28;20072;-65
2022/04/04 04:52:05;;;;;;;16.60;7.63;;;;;;;;;;4986218;28;20045;-65
2022/04/04 04:54:31;;;;;;;15.73;8.95;;;;;;;;;;4985845;28;20081;-65
2022/04/04 04:56:58;;;;;;;14.57;8.60;;;;;;;;;;4986841;28;20066;-65
2022/04/04 04:59:25;;;;;;;20.17;9.48;;;;;;;;;;4987051;28;20100;-65
2022/04/04 05:01:51;;;;;;;17.30;9.18;;;;;;;;;;4986317;28;20487;-65
2022/04/04 05:04:17;;;;;;;19.50;9.63;;;;;;;;;;4987037;28;20154;-64
2022/04/04 05:06:48;;;;;;;18.25;8.93;;;;;;;;;;4986148;28;20177;-64
2022/04/04 05:09:15;;;;;;;19.55;9.52;;;;;;;;;;4985436;28;20514;-63
2022/04/04 05:11:41;;;;;;;19.27;9.00;;;;;;;;;;4985799;28;20602;-63
2022/04/04 05:14:13;;;;;;;23.73;10.32;;;;;;;;;;4982954;28;20051;-63
2022/04/04 05:16:39;;;;;;;14.93;9.27;;;;;;;;;;4983814;28;20435;-63
2022/04/04 05:19:06;;;;;;;22.77;10.27;;;;;;;;;;4985084;28;20065;-63
2022/04/04 05:21:34;;;;;;;24.42;11.30;;;;;;;;;;4985645;28;20041;-64
2022/04/04 05:24:00;;;;;;;14.67;8.93;;;;;;;;;;4985732;28;20077;-65
2022/04/04 05:26:26;;;;;;;20.38;10.50;;;;;;;;;;4985072;28;20034;-64
2022/04/04 05:28:54;;;;;;;19.83;10.55;;;;;;;;;;4985225;28;20039;-64
2022/04/04 05:31:20;;;;;;;21.88;10.45;;;;;;;;;;4981823;28;20098;-64
2022/04/04 05:33:46;;;;;;;20.05;10.27;;;;;;;;;;4985700;28;20488;-64
2022/04/04 05:36:12;;;;;;;15.00;10.07;;;;;;;;;;4984246;28;20053;-64
2022/04/04 05:38:39;;;;;;;17.83;9.05;;;;;;;;;;4983400;28;20129;-64
2022/04/04 05:41:05;;;;;;;15.50;9.25;;;;;;;;;;4984125;28;20058;-64
2022/04/04 05:43:31;;;;;;;21.33;9.52;;;;;;;;;;4981699;28;20034;-64
2022/04/04 05:45:57;;;;;;;16.55;9.32;;;;;;;;;;4984477;28;20785;-63
2022/04/04 05:48:27;;;;;;;22.85;10.25;;;;;;;;;;4981348;28;20399;-64
2022/04/04 05:50:54;;;;;;;17.83;10.23;;;;;;;;;;4983329;28;20097;-63
2022/04/04 05:53:20;;;;;;;17.95;10.07;;;;;;;;;;4967827;28;20128;-63
2022/04/04 05:55:46;;;;;;;20.23;9.52;;;;;;;;;;4985523;28;20042;-61
2022/04/04 05:58:12;;;;;;;22.63;10.15;;;;;;;;;;4986178;28;20521;-63
2022/04/04 06:00:38;;;;;;;24.15;10.70;;;;;;;;;;4985583;28;21763;-62
2022/04/04 06:03:06;;;;;;;19.23;9.50;;;;;;;;;;4984647;28;20039;-61
2022/04/04 06:05:34;;;;;;;18.15;9.00;;;;;;;;;;4985190;28;20113;-63
2022/04/04 06:08:01;;;;;;;;;;;;;;;;;;4985065;28;20046;-63
2022/04/04 06:10:27;;;;;;;18.80;9.63;;;;;;;;;;4985918;28;19922;-62
2022/04/04 06:12:53;;;;;;;17.23;9.48;;;;;;;;;;4979811;28;20094;-62
2022/04/04 06:15:20;;;;;;;16.70;9.25;;;;;;;;;;4970348;28;20050;-62
2022/04/04 06:17:46;;;;;;;18.48;9.48;;;;;;;;;;4970607;28;20039;-62
2022/04/04 06:20:13;;;;;;;15.20;7.32;;;;;;;;;;4969432;28;20042;-62
2022/04/04 06:22:40;;;;;;;19.75;8.70;;;;;;;;;;4970147;28;20034;-62
2022/04/04 06:25:08;;;;;;;20.15;8.73;;;;;;;;;;4969934;28;20062;-62
2022/04/04 06:27:35;;;;;;;15.23;7.65;;;;;;;;;;4969732;28;20073;-62
2022/04/04 06:30:01;;;;;;;17.90;9.60;;;;;;;;;;4969758;28;20103;-62
2022/04/04 06:32:27;;;;;;;18.98;9.55;;;;;;;;;;4970131;28;20113;-61
2022/04/04 06:34:54;;;;;;;20.95;9.73;;;;;;;;;;4969226;28;20081;-62
2022/04/04 06:37:20;;;;;;;16.38;8.63;;;;;;;;;;4970312;28;20078;-61
2022/04/04 06:39:46;;;;;;;17.13;9.48;;;;;;;;;;4969955;28;20047;-61
2022/04/04 06:42:12;;;;;;;17.65;9.43;;;;;;;;;;4969401;28;20059;-62
2022/04/04 06:44:39;;;;;;;20.00;9.02;;;;;;;;;;4969970;28;20049;-61
2022/04/04 06:47:05;;;;;;;20.35;8.23;;;;;;;;;;4969442;28;20039;-61
2022/04/04 06:49:31;;;;;;;18.80;9.35;;;;;;;;;;4968926;28;20047;-61
2022/04/04 06:51:57;;;;;;;18.48;8.77;;;;;;;;;;4969537;28;20503;-62
2022/04/04 06:54:24;;;;;;;16.27;9.68;;;;;;;;;;4969285;28;20046;-62
2022/04/04 06:56:52;;;;;;;17.98;8.98;;;;;;;;;;4969396;28;20035;-62
2022/04/04 06:59:18;;;;;;;15.80;8.88;;;;;;;;;;4965485;28;20047;-61
2022/04/04 07:01:44;;;;;;;15.35;8.80;;;;;;;;;;4968391;28;20512;-62
2022/04/04 07:04:10;;;;;;;18.08;8.80;;;;;;;;;;4968050;28;20133;-62
2022/04/04 07:06:37;;;;;;;19.70;9.85;;;;;;;;;;4969507;28;20093;-62
2022/04/04 07:09:03;;;;;;;17.98;8.88;;;;;;;;;;4969350;28;20074;-62
2022/04/04 07:11:30;;;;;;;17.42;10.35;;;;;;;;;;4968983;28;20057;-62
2022/04/04 07:13:57;;;;;;;21.90;10.88;;;;;;;;;;4968958;28;20137;-62
2022/04/04 07:16:25;;;;;;;18.98;8.88;;;;;;;;;;4969022;28;20125;-63
2022/04/04 07:18:52;;;;;;;19.38;9.35;;;;;;;;;;4969525;28;20042;-62
2022/04/04 07:21:18;;;;;;;18.27;9.02;;;;;;;;;;4968284;28;20086;-62
2022/04/04 07:23:44;;;;;;;24.35;10.93;;;;;;;;;;4968798;28;20038;-62
2022/04/04 07:26:10;;;;;;;20.23;9.82;;;;;;;;;;4969008;28;20117;-62
2022/04/04 07:28:38;;;;;;;20.58;9.65;;;;;;;;;;4969038;28;20047;-62
2022/04/04 07:31:09;;;;;;;20.08;9.27;;;;;;;;;;4969276;28;20073;-63
2022/04/04 07:33:35;;;;;;;17.20;8.88;;;;;;;;;;4965608;28;20462;-62
2022/04/04 07:36:01;;;;;;;19.05;8.82;;;;;;;;;;4967589;28;20453;-62
2022/04/04 07:38:28;;;;;;;22.80;10.88;;;;;;;;;;4968386;28;20374;-62
2022/04/04 07:40:54;;;;;;;16.55;8.07;;;;;;;;;;4969003;28;20433;-62
2022/04/04 07:43:20;;;;;;;17.33;9.90;;;;;;;;;;4965443;28;20047;-62
2022/04/04 07:45:46;;;;;;;20.60;11.73;;;;;;;;;;4968677;28;20101;-62
2022/04/04 07:48:12;;;;;;;12.38;7.35;;;;;;;;;;4968477;28;20050;-62
2022/04/04 07:50:41;;;;;;;19.67;10.30;;;;;;;;;;4968100;28;20636;-62
2022/04/04 07:53:08;;;;;;;31.08;13.43;;;;;;;;;;4968202;28;20723;-63
2022/04/04 07:55:36;;;;;;;19.48;10.18;;;;;;;;;;4967761;28;20069;-62
2022/04/04 07:58:02;;;;;;;19.48;9.75;;;;;;;;;;4951173;28;20074;-62
2022/04/04 08:00:28;;;;;;;20.15;10.55;;;;;;;;;;4968545;28;20035;-62
2022/04/04 08:02:55;;;;;;;23.48;11.55;;;;;;;;;;4967958;28;20310;-62
2022/04/04 08:05:23;;;;;;;19.33;11.48;;;;;;;;;;4968151;28;20042;-62
2022/04/04 08:07:51;;;;;;;22.77;11.77;;;;;;;;;;4968315;28;20139;-62
2022/04/04 08:10:17;;;;;;;20.95;11.93;;;;;;;;;;4968803;28;20043;-62
2022/04/04 08:12:44;;;;;;;27.58;11.18;;;;;;;;;;4972006;28;20141;-62
2022/04/04 08:15:10;;;;;;;21.50;12.00;;;;;;;;;;4987162;28;20500;-62
2022/04/04 08:17:37;;;;;;;19.13;12.10;;;;;;;;;;4987560;28;20066;-62
2022/04/04 08:20:04;;;;;;;20.52;11.15;;;;;;;;;;4986618;28;20105;-62
2022/04/04 08:22:30;;;;;;;20.80;10.85;;;;;;;;;;4987570;28;20053;-62
2022/04/04 08:24:56;;;;;;;24.92;12.80;;;;;;;;;;4987220;28;20052;-62
2022/04/04 08:27:23;;;;;;;26.17;12.60;;;;;;;;;;4969994;28;20669;-62
2022/04/04 08:29:49;;;;;;;23.33;12.48;;;;;;;;;;4972688;28;20054;-61
2022/04/04 08:32:17;;;;;;;22.25;10.75;;;;;;;;;;4986467;28;20042;-62
2022/04/04 08:34:43;;;;;;;19.77;10.55;;;;;;;;;;4985406;28;20105;-62
2022/04/04 08:37:09;;;;;;;17.88;11.18;;;;;;;;;;4985812;28;20047;-62
2022/04/04 08:39:35;;;;;;;15.73;9.45;;;;;;;;;;4986399;28;20048;-62
2022/04/04 08:42:03;;;;;;;18.40;9.55;;;;;;;;;;4985792;28;20042;-62
2022/04/04 08:44:29;;;;;;;16.48;9.65;;;;;;;;;;4971534;28;20030;-62
2022/04/04 08:46:55;;;;;;;10.95;7.43;;;;;;;;;;4971307;28;20073;-62
2022/04/04 08:49:21;;;;;;;14.70;7.35;;;;;;;;;;4967318;28;20074;-62
2022/04/04 08:51:49;;;;;;;15.77;7.50;;;;;;;;;;4968524;28;20483;-62
2022/04/04 08:54:15;;;;;;;14.10;7.55;;;;;;;;;;4968551;28;20039;-62
2022/04/04 08:56:43;;;;;;;11.13;6.22;;;;;;;;;;4975240;28;20105;-61
2022/04/04 08:59:09;;;;;;;9.70;6.30;;;;;;;;;;4985570;28;20520;-61
2022/04/04 09:01:35;;;;;;;11.07;6.35;;;;;;;;;;4985764;28;20121;-62
2022/04/04 09:04:01;;;;;;;13.68;5.18;;;;;;;;;;4984363;28;20050;-62
2022/04/04 09:06:28;;;;;;;9.02;3.33;;;;;;;;;;4985877;28;20109;-62
2022/04/04 09:08:56;;;;;;;9.15;4.35;;;;;;;;;;4980423;28;20046;-62
2022/04/04 09:11:23;;;;;;;7.88;3.05;;;;;;;;;;4967816;28;20054;-62
2022/04/04 09:14:06;;;;;;;11.18;3.97;;;;;;;;;;4969098;28;20062;-62
2022/04/04 09:16:32;;;;;;;4.40;2.53;;;;;;;;;;4983664;28;20443;-62
2022/04/04 09:18:58;;;;;;;7.47;2.75;;;;;;;;;;4985832;28;20046;-62
2022/04/04 09:21:25;;;;;;;5.03;2.28;;;;;;;;;;4986532;28;20042;-62
2022/04/04 09:23:54;;;;;;;5.60;2.50;;;;;;;;;;4986639;28;20050;-62
2022/04/04 09:26:30;;;;;;;5.10;2.60;;;;;;;;;;4986479;28;20121;-61
2022/04/04 09:29:06;;;;;;;7.05;2.40;;;;;;;;;;4986046;28;20408;-62
2022/04/04 09:31:33;;;;;;;5.95;2.40;;;;;;;;;;4986402;28;20074;-61
2022/04/04 09:34:01;;;;;;;6.65;2.30;;;;;;;;;;4984938;28;20069;-62
2022/04/04 09:36:28;;;;;;;7.50;2.13;;;;;;;;;;4985802;28;20058;-62
2022/04/04 09:38:54;;;;;;;3.95;1.73;;;;;;;;;;4986060;28;20053;-62
2022/04/04 09:41:22;;;;;;;6.65;2.50;;;;;;;;;;4986175;28;20503;-62
2022/04/04 09:43:56;;;;;;;8.07;2.55;;;;;;;;;;4986657;28;20038;-62
2022/04/04 09:46:23;;;;;;;5.05;2.03;;;;;;;;;;4986087;28;20035;-62
2022/04/04 09:49:04;;;;;;;2.92;1.73;;;;;;;;;;4985706;28;20045;-62
2022/04/04 09:51:44;;;;;;;7.78;2.50;;;;;;;;;;4986017;28;20726;-62
2022/04/04 09:54:11;;;;;;;11.65;2.05;;;;;;;;;;4985609;28;20052;-62
2022/04/04 09:56:37;;;;;;;9.10;2.40;;;;;;;;;;4986178;28;20109;-62
2022/04/04 09:59:04;;;;;;;7.70;1.67;;;;;;;;;;4985942;28;20866;-62
2022/04/04 10:01:31;;;;;;;5.70;2.83;;;;;;;;;;4986091;28;20619;-61
2022/04/04 10:03:57;;;;;;;4.28;2.03;;;;;;;;;;4985081;28;20039;-62
2022/04/04 10:06:27;;;;;;;9.77;2.53;;;;;;;;;;4985727;28;20129;-62
2022/04/04 10:08:55;;;;;;;5.45;2.25;;;;;;;;;;4985764;28;20488;-62
2022/04/04 10:11:22;;;;;;;5.30;2.17;;;;;;;;;;4985598;28;20079;-62
2022/04/04 10:13:49;;;;;;;5.90;2.08;;;;;;;;;;4975103;28;20089;-62
2022/04/04 10:16:16;;;;;;;5.05;2.58;;;;;;;;;;4966127;28;20709;-62
2022/04/04 10:18:44;;;;;;;8.48;3.40;;;;;;;;;;4965550;28;20070;-62
2022/04/04 10:21:11;;;;;;;9.73;2.38;;;;;;;;;;4965915;28;20098;-62
2022/04/04 10:23:39;;;;;;;5.78;2.78;;;;;;;;;;4966682;28;20046;-62
2022/04/04 10:26:07;;;;;;;3.42;2.53;;;;;;;;;;4966002;28;20071;-62
2022/04/04 10:28:35;;;;;;;9.18;2.92;;;;;;;;;;4966375;28;20062;-62
2022/04/04 10:31:15;;;;;;;5.88;2.80;;;;;;;;;;4966296;28;20058;-63
2022/04/04 10:33:41;;;;;;;4.57;2.22;;;;;;;;;;4965325;28;20049;-62
2022/04/04 10:36:16;;;;;;;5.63;3.13;;;;;;;;;;4966066;28;20507;-62
2022/04/04 10:38:50;;;;;;;4.35;2.60;;;;;;;;;;4965740;28;20167;-61
2022/04/04 10:41:23;;;;;;;7.85;3.17;;;;;;;;;;4965677;28;20050;-62
2022/04/04 10:43:50;;;;;;;8.27;2.78;;;;;;;;;;4948797;28;20503;-62
2022/04/04 10:46:17;;;;;;;6.28;2.60;;;;;;;;;;4966302;28;20126;-62
2022/04/04 10:48:51;;;;;;;8.30;3.30;;;;;;;;;;4965458;28;20051;-62
2022/04/04 10:51:19;;;;;;;6.32;3.65;;;;;;;;;;4966060;28;20035;-62
2022/04/04 10:53:48;;;;;;;5.00;3.25;;;;;;;;;;4965761;28;20505;-62
2022/04/04 10:56:17;;;;;;;10.10;2.55;;;;;;;;;;4965583;28;20078;-62
2022/04/04 10:58:43;;;;;;;5.18;3.22;;;;;;;;;;4949229;28;20047;-62
2022/04/04 11:01:17;;;;;;;6.93;2.72;;;;;;;;;;4969302;28;20119;-62
2022/04/04 11:03:49;;;;;;;5.57;2.22;;;;;;;;;;4969028;28;20054;-63
2022/04/04 11:09:00;;;;;;;3.28;2.22;;;;;;;;;;4969220;28;20102;-62
2022/04/04 11:11:41;;;;;;;5.22;2.75;;;;;;;;;;4969263;28;20488;-62
2022/04/04 11:14:08;;;;;;;3.75;1.83;;;;;;;;;;4981895;28;20061;-62
2022/04/04 11:16:53;;;;;;;5.63;2.40;;;;;;;;;;4987391;28;20522;-62
2022/04/04 11:19:19;;;;;;;4.43;1.88;;;;;;;;;;4986589;28;20042;-63
2022/04/04 11:21:46;;;;;;;3.67;1.75;;;;;;;;;;4987194;28;20130;-63
2022/04/04 11:24:14;;;;;;;5.05;1.65;;;;;;;;;;4987090;28;20575;-62
2022/04/04 11:26:40;;;;;;;4.03;1.58;;;;;;;;;;4987159;28;20101;-63
2022/04/04 11:29:09;;;;;;;3.92;1.60;;;;;;;;;;4987909;28;20039;-62
2022/04/04 11:31:46;;;;;;;10.20;2.10;;;;;;;;;;4987662;28;20074;-62
2022/04/04 11:34:13;;;;;;;4.80;1.20;;;;;;;;;;4986370;28;20054;-62
2022/04/04 11:36:40;;;;;;;2.55;1.40;;;;;;;;;;4986702;28;20515;-62
2022/04/04 11:39:08;;;;;;;6.43;1.48;;;;;;;;;;4986978;28;20030;-62
2022/04/04 11:41:36;;;;;;;3.83;1.35;;;;;;;;;;4986477;28;20042;-62
2022/04/04 11:44:02;;;;;;;;;;;;;;;;;;4987827;28;20034;-62
2022/04/04 11:46:28;;;;;;;3.10;1.15;;;;;;;;;;4987316;28;19929;-62
2022/04/04 11:48:55;;;;;;;3.85;0.80;;;;;;;;;;4987235;28;20051;-62
2022/04/04 11:51:34;;;;;;;3.97;1.30;;;;;;;;;;4988361;28;20105;-62
2022/04/04 11:54:01;;;;;;;3.53;1.08;;;;;;;;;;4987422;28;20459;-62
2022/04/04 11:56:28;;;;;;;2.50;0.98;;;;;;;;;;4987575;28;20043;-62
2022/04/04 11:58:55;;;;;;;2.20;1.20;;;;;;;;;;4987399;28;20050;-62
2022/04/04 12:01:28;;;;;;;3.00;1.13;;;;;;;;;;4988453;28;20381;-62
2022/04/04 12:03:54;;;;;;;2.60;1.02;;;;;;;;;;4987054;28;20100;-62
2022/04/04 12:06:21;;;;;;;5.35;1.33;;;;;;;;;;4988276;28;20046;-62
2022/04/04 12:08:47;;;;;;;3.25;1.00;;;;;;;;;;4987879;28;20448;-61
2022/04/04 12:11:13;;;;;;;3.17;0.80;;;;;;;;;;4986201;28;20042;-62
2022/04/04 12:13:52;;;;;;;2.75;1.10;;;;;;;;;;4987183;28;20050;-61
2022/04/04 12:16:18;;;;;;;1.55;0.80;;;;;;;;;;4987921;28;20053;-61
2022/04/04 12:18:52;;;;;;;2.20;0.90;;;;;;;;;;4986489;28;20481;-61
2022/04/04 12:21:20;;;;;;;2.90;0.90;;;;;;;;;;4988145;28;20038;-62
2022/04/04 12:26:32;;;;;;;1.67;1.13;;;;;;;;;;4984559;28;20105;-62
2022/04/04 12:28:58;;;;;;;2.03;0.65;;;;;;;;;;4987509;28;20046;-62
2022/04/04 12:31:26;;;;;;;3.65;0.90;;;;;;;;;;4986373;28;20108;-62
2022/04/04 12:33:56;;;;;;;5.22;1.00;;;;;;;;;;4985813;28;20097;-62
2022/04/04 12:36:28;;;;;;;2.17;0.77;;;;;;;;;;4987285;28;20039;-62
2022/04/04 12:38:57;;;;;;;1.42;0.82;;;;;;;;;;4969643;28;20039;-62
2022/04/04 12:41:23;;;;;;;0.82;0.60;;;;;;;;;;4969659;28;20039;-62
2022/04/04 12:43:59;;;;;;;2.05;0.70;;;;;;;;;;4987597;28;20131;-62
2022/04/04 12:46:27;;;;;;;0.90;0.60;;;;;;;;;;4986629;28;20058;-62
2022/04/04 12:48:55;;;;;;;0.90;0.70;;;;;;;;;;4985327;28;20077;-62
2022/04/04 12:51:29;;;;;;;1.63;0.60;;;;;;;;;;4987402;28;20031;-62
2022/04/04 12:53:56;;;;;;;1.80;0.60;;;;;;;;;;4987013;28;20404;-62
2022/04/04 12:56:23;;;;;;;1.00;0.70;;;;;;;;;;4965391;28;20109;-62
2022/04/04 12:59:05;;;;;;;1.33;0.60;;;;;;;;;;4987244;28;20034;-62
2022/04/04 13:01:31;;;;;;;0.68;0.52;;;;;;;;;;4986537;28;20042;-62
2022/04/04 13:03:57;;;;;;;2.55;0.60;;;;;;;;;;4985956;28;20038;-62
2022/04/04 13:06:24;;;;;;;0.70;0.50;;;;;;;;;;4986493;28;20039;-62
2022/04/04 13:08:55;;;;;;;1.80;0.60;;;;;;;;;;4986279;28;20547;-62
2022/04/04 13:11:22;;;;;;;1.65;0.60;;;;;;;;;;4983631;28;20412;-62
2022/04/04 13:14:00;;;;;;;1.35;0.45;;;;;;;;;;4985051;28;20038;-62
2022/04/04 13:16:31;;;;;;;4.32;0.60;;;;;;;;;;4984820;28;20100;-62
2022/04/04 13:18:57;;;;;;;1.30;0.73;;;;;;;;;;4985715;28;20031;-62
2022/04/04 13:21:23;;;;;;;0.93;0.57;;;;;;;;;;4986801;28;20049;-62
2022/04/04 13:23:49;;;;;;;1.38;0.63;;;;;;;;;;4986555;28;20038;-62
2022/04/04 13:26:16;;;;;;;1.60;0.60;;;;;;;;;;4968597;28;20050;-62
2022/04/04 13:28:42;;;;;;;1.35;0.63;;;;;;;;;;4986284;28;20347;-62
2022/04/04 13:31:08;;;;;;;1.73;0.70;;;;;;;;;;4986050;28;20042;-61
2022/04/04 13:33:34;;;;;;;1.88;0.50;;;;;;;;;;4985524;28;20050;-62
2022/04/04 13:36:01;;;;;;;1.02;0.60;;;;;;;;;;4984834;28;20071;-61
2022/04/04 13:38:27;;;;;;;1.65;0.60;;;;;;;;;;4985354;28;20053;-62
2022/04/04 13:40:54;;;;;;;1.65;0.77;;;;;;;;;;4985651;28;20042;-62
2022/04/04 13:43:20;;;;;;;1.00;0.60;;;;;;;;;;4986299;28;20042;-62
2022/04/04 13:45:46;;;;;;;1.50;0.60;;;;;;;;;;4985887;28;20065;-62
2022/04/04 13:48:13;;;;;;;1.90;0.77;;;;;;;;;;4984558;28;20436;-62
2022/04/04 13:50:39;;;;;;;3.97;0.80;;;;;;;;;;4985680;28;20129;-61
2022/04/04 13:53:05;;;;;;;1.38;0.60;;;;;;;;;;4968223;28;20078;-62
2022/04/04 13:55:31;;;;;;;1.90;0.63;;;;;;;;;;4967646;28;20042;-62
2022/04/04 13:57:57;;;;;;;3.22;0.70;;;;;;;;;;4967368;28;20043;-62
2022/04/04 14:00:24;;;;;;;3.13;0.70;;;;;;;;;;4966991;28;20488;-63
2022/04/04 14:02:50;;;;;;;2.30;0.60;;;;;;;;;;4971295;28;20078;-62
2022/04/04 14:05:16;;;;;;;2.67;1.33;;;;;;;;;;4977717;28;20039;-62
2022/04/04 14:07:43;;;;;;;3.47;1.02;;;;;;;;;;4985893;28;20105;-62
2022/04/04 14:10:11;;;;;;;1.38;0.70;;;;;;;;;;4985560;28;20050;-62
2022/04/04 14:12:38;;;;;;;2.67;0.82;;;;;;;;;;4985668;28;20038;-62
2022/04/04 14:15:06;;;;;;;1.90;1.00;;;;;;;;;;4985791;28;20069;-62
2022/04/04 14:17:35;;;;;;;3.47;1.50;;;;;;;;;;4982067;28;20117;-62
2022/04/04 14:20:05;;;;;;;2.03;1.13;;;;;;;;;;4967573;28;20320;-62
2022/04/04 14:22:32;;;;;;;5.30;1.40;;;;;;;;;;4985422;28;20042;-62
2022/04/04 14:24:58;;;;;;;2.33;1.20;;;;;;;;;;4985829;28;20050;-61
2022/04/04 14:27:25;;;;;;;2.63;1.20;;;;;;;;;;4985946;28;20498;-62
2022/04/04 14:29:51;;;;;;;3.50;1.20;;;;;;;;;;4986133;28;20133;-62
2022/04/04 14:32:18;;;;;;;2.85;1.17;;;;;;;;;;4986060;28;20041;-62
2022/04/04 14:34:44;;;;;;;3.17;1.20;;;;;;;;;;4986630;28;20492;-62
2022/04/04 14:37:11;;;;;;;2.50;1.20;;;;;;;;;;4985261;28;20404;-62
2022/04/04 14:39:38;;;;;;;2.00;1.10;;;;;;;;;;4989357;28;20043;-61
2022/04/04 14:42:05;;;;;;;3.05;1.10;;;;;;;;;;4989066;28;20054;-62
2022/04/04 14:44:32;;;;;;;2.92;1.02;;;;;;;;;;4989401;28;20046;-61